Time;durP1;ratioP1;P1;durP2;ratioP2;P2;SDS_P1;SDS_P2;PMS_P1;PMS_P2;Temp;Humidity;BMP_temperature;BMP_pressure;BME280_temperature;BME280_humidity;BME280_pressure;Samples;Min_cycle;Max_cycle;Signal;HPM_P1;HPM_P2
2021/05/29 00:02:04;;;;;;;7.88;6.03;;;;;;;-142.75;66.79;78470.31;5010796;28;20050;-75
2021/05/29 00:04:29;;;;;;;7.55;5.40;;;;;;;-142.75;66.53;78474.25;5011011;28;20025;-76
2021/05/29 00:06:54;;;;;;;11.32;6.30;;;;;;;-142.75;66.68;78486.06;4994460;28;20026;-75
2021/05/29 00:09:20;;;;;;;7.88;6.45;;;;;;;-142.75;67.30;78491.97;5006478;28;20411;-75
2021/05/29 00:11:45;;;;;;;11.23;6.35;;;;;;;-142.75;67.57;78486.06;5019382;28;21402;-75
2021/05/29 00:14:11;;;;;;;10.40;7.18;;;;;;;-142.75;67.51;78490.00;5019105;28;20048;-74
2021/05/29 00:16:36;;;;;;;9.68;6.60;;;;;;;-142.75;67.44;78493.97;5010622;28;20034;-73
2021/05/29 00:19:02;;;;;;;7.25;5.43;;;;;;;-142.75;67.01;78495.94;5008119;28;20025;-75
2021/05/29 00:21:27;;;;;;;5.57;4.55;;;;;;;-142.75;66.76;78511.69;5018998;28;20516;-75
2021/05/29 00:23:52;;;;;;;8.70;5.00;;;;;;;-142.75;66.48;78523.50;5019164;28;20036;-76
2021/05/29 00:26:18;;;;;;;7.53;5.17;;;;;;;-142.75;66.71;78527.44;5000384;28;20036;-74
2021/05/29 00:28:43;;;;;;;7.57;4.60;;;;;;;-142.75;66.73;78539.25;5021063;28;20338;-75
2021/05/29 00:31:08;;;;;;;7.93;5.25;;;;;;;-142.75;66.70;78541.22;5025011;28;20395;-75
2021/05/29 00:33:34;;;;;;;7.82;5.18;;;;;;;-142.75;66.88;78551.06;5018381;28;20120;-75
2021/05/29 00:35:59;;;;;;;5.50;4.28;;;;;;;-142.75;67.08;78545.16;5004250;28;20021;-76
2021/05/29 00:38:25;;;;;;;8.02;4.35;;;;;;;-142.75;67.01;78553.03;5004676;28;20422;-75
2021/05/29 00:40:50;;;;;;;6.65;4.30;;;;;;;-142.75;67.01;78551.06;5018116;28;20029;-74
2021/05/29 00:43:15;;;;;;;8.00;5.53;;;;;;;-142.75;66.98;78566.81;5020008;28;20498;-75
2021/05/29 00:45:41;;;;;;;12.80;7.90;;;;;;;-142.75;67.40;78560.91;5022471;28;20037;-75
2021/05/29 00:48:07;;;;;;;10.57;6.97;;;;;;;-142.75;68.06;78555.00;5009576;28;20376;-75
2021/05/29 00:50:33;;;;;;;;;;;;;;;-142.75;67.96;78541.22;5022132;28;20025;-75
2021/05/29 00:52:59;;;;;;;8.23;6.00;;;;;;;-142.75;67.67;78535.31;5009657;28;20295;-76
2021/05/29 00:55:24;;;;;;;8.68;6.03;;;;;;;-142.75;67.42;78533.34;5007901;28;20033;-74
2021/05/29 00:57:51;;;;;;;8.63;5.82;;;;;;;-142.75;66.95;78541.22;5031119;28;20014;-76
2021/05/29 01:00:19;;;;;;;7.67;6.40;;;;;;;-142.75;67.19;78543.19;5009196;28;20037;-77
2021/05/29 01:02:46;;;;;;;7.70;5.63;;;;;;;-142.75;66.85;78553.03;5030440;28;20112;-76
2021/05/29 01:05:12;;;;;;;7.00;5.17;;;;;;;-142.75;66.88;78564.84;5019595;28;20022;-77
2021/05/29 01:07:38;;;;;;;5.80;4.50;;;;;;;-142.75;66.91;78580.59;5016504;28;20226;-75
2021/05/29 01:10:06;;;;;;;7.85;5.53;;;;;;;-142.75;66.91;78586.53;5025053;28;20036;-75
2021/05/29 01:12:31;;;;;;;6.27;4.73;;;;;;;-142.75;67.03;78592.44;5005167;28;20026;-76
2021/05/29 01:14:59;;;;;;;8.25;5.50;;;;;;;-142.75;67.19;78594.41;5003951;28;20088;-76
2021/05/29 01:17:26;;;;;;;6.43;4.80;;;;;;;-142.75;67.29;78598.34;5022842;28;20017;-76
2021/05/29 01:19:51;;;;;;;7.40;5.03;;;;;;;-142.75;67.31;78598.34;5005744;28;20021;-75
2021/05/29 01:22:36;;;;;;;7.22;5.40;;;;;;;-142.75;67.10;78621.97;5022819;28;20389;-76
2021/05/29 01:25:12;;;;;;;6.87;5.43;;;;;;;-142.75;67.22;78629.84;5006009;28;20040;-76
2021/05/29 01:27:37;;;;;;;8.63;5.40;;;;;;;-142.75;67.41;78637.72;5025253;28;20438;-75
2021/05/29 01:30:05;;;;;;;10.98;5.78;;;;;;;-142.75;67.55;78649.53;5023363;28;20042;-76
2021/05/29 01:32:33;;;;;;;8.27;5.53;;;;;;;-142.75;67.49;78647.56;5024681;28;20026;-76
2021/05/29 01:35:05;;;;;;;7.30;4.83;;;;;;;-142.75;67.40;78651.50;5019680;28;20029;-75
2021/05/29 01:37:31;;;;;;;6.87;4.10;;;;;;;-142.75;67.33;78657.41;5005371;28;20048;-76
2021/05/29 01:39:57;;;;;;;8.00;5.28;;;;;;;-142.75;67.43;78665.28;5022079;28;20106;-76
2021/05/29 01:42:25;;;;;;;7.07;4.25;;;;;;;-142.75;67.47;78671.22;5006883;28;20029;-76
2021/05/29 01:44:50;;;;;;;7.03;4.80;;;;;;;-142.75;67.56;78677.13;5002750;28;20029;-77
2021/05/29 01:47:16;;;;;;;8.55;5.28;;;;;;;-142.75;67.52;78677.13;5022644;28;20088;-76
2021/05/29 01:49:41;;;;;;;7.57;5.05;;;;;;;-142.75;67.50;78685.00;5006108;28;20368;-76
2021/05/29 01:52:07;;;;;;;6.63;4.93;;;;;;;-142.75;67.65;78685.00;5004727;28;20021;-76
2021/05/29 01:54:32;;;;;;;7.18;5.32;;;;;;;-142.75;67.49;78692.88;5020920;28;20343;-77
2021/05/29 01:56:58;;;;;;;7.07;5.03;;;;;;;-142.75;67.59;78694.84;5005284;28;20148;-76
2021/05/29 01:59:24;;;;;;;7.78;5.63;;;;;;;-142.75;67.53;78692.88;5025931;28;20634;-76
2021/05/29 02:01:50;;;;;;;9.88;5.85;;;;;;;-142.75;67.53;78696.81;5021551;28;20025;-75
2021/05/29 02:04:15;;;;;;;15.50;6.63;;;;;;;-142.75;67.75;78700.75;5003934;28;20076;-77
2021/05/29 02:06:40;;;;;;;10.25;6.07;;;;;;;-142.75;67.79;78704.69;5024822;28;20029;-76
2021/05/29 02:09:06;;;;;;;6.83;5.17;;;;;;;-142.75;67.70;78708.63;5022263;28;20083;-73
2021/05/29 02:11:31;;;;;;;8.15;5.85;;;;;;;-142.75;67.69;78712.56;5027119;28;20344;-75
2021/05/29 02:13:56;;;;;;;9.90;6.10;;;;;;;-142.75;67.87;78718.47;5022334;28;20022;-75
2021/05/29 02:16:22;;;;;;;9.45;6.93;;;;;;;-142.75;67.84;78720.44;5005938;28;20052;-75
2021/05/29 02:18:47;;;;;;;9.23;5.60;;;;;;;-142.75;67.86;78720.44;5028847;28;20297;-75
2021/05/29 02:21:15;;;;;;;9.20;5.87;;;;;;;-142.75;67.95;78718.47;5000834;28;20041;-76
2021/05/29 02:23:45;;;;;;;11.43;6.83;;;;;;;-142.75;67.81;78720.44;5019037;28;20265;-74
2021/05/29 02:26:13;;;;;;;11.90;7.47;;;;;;;-142.75;68.19;78720.44;5025053;28;20024;-75
2021/05/29 02:28:41;;;;;;;10.20;7.10;;;;;;;-142.75;68.24;78724.38;4999013;28;20026;-74
2021/05/29 02:31:09;;;;;;;11.80;7.90;;;;;;;-142.75;68.53;78716.50;5004326;28;20029;-76
2021/05/29 02:33:35;;;;;;;9.97;6.20;;;;;;;-142.75;68.06;78720.44;5021683;28;20026;-75
2021/05/29 02:36:03;;;;;;;10.13;7.13;;;;;;;-142.75;67.96;78720.44;5017764;28;20033;-75
2021/05/29 02:38:29;;;;;;;9.13;6.10;;;;;;;-142.75;67.87;78718.47;5017899;28;20034;-75
2021/05/29 02:40:56;;;;;;;8.60;5.80;;;;;;;-142.75;67.78;78720.44;5004103;28;20480;-75
2021/05/29 02:43:21;;;;;;;11.03;6.00;;;;;;;-142.75;67.84;78728.31;5024811;28;20087;-76
2021/05/29 02:45:47;;;;;;;8.73;5.97;;;;;;;-142.75;67.59;78728.31;5003650;28;20376;-76
2021/05/29 02:48:14;;;;;;;8.68;5.22;;;;;;;-142.75;67.84;78732.25;5022814;28;20044;-75
2021/05/29 02:50:41;;;;;;;7.33;5.37;;;;;;;-142.75;67.85;78736.19;5002583;28;20535;-76
2021/05/29 02:53:08;;;;;;;7.83;5.10;;;;;;;-142.75;67.86;78738.16;5004693;28;20034;-75
2021/05/29 02:55:34;;;;;;;7.17;4.90;;;;;;;-142.75;67.94;78751.97;5003934;28;20025;-76
2021/05/29 02:58:01;;;;;;;7.00;5.00;;;;;;;-142.75;67.98;78755.91;5005607;28;20113;-75
2021/05/29 03:00:30;;;;;;;;;;;;;;;-142.75;67.93;78755.91;5021034;28;20538;-76
2021/05/29 03:02:56;;;;;;;8.03;5.53;;;;;;;-142.75;68.17;78757.88;5002487;28;19920;-76
2021/05/29 03:05:22;;;;;;;8.55;5.35;;;;;;;-142.75;67.90;78761.81;5004272;28;20583;-75
2021/05/29 03:07:48;;;;;;;7.13;4.93;;;;;;;-142.75;68.15;78769.69;5023316;28;20105;-75
2021/05/29 03:10:15;;;;;;;9.17;5.23;;;;;;;-142.75;68.00;78779.53;5003859;28;20026;-76
2021/05/29 03:12:41;;;;;;;7.67;5.03;;;;;;;-142.75;68.15;78777.56;5005156;28;20462;-75
2021/05/29 03:15:08;;;;;;;6.80;5.13;;;;;;;-142.75;68.14;78779.53;5005545;28;20061;-75
2021/05/29 03:17:34;;;;;;;8.93;6.10;;;;;;;-142.75;68.05;78783.47;5022918;28;20025;-76
2021/05/29 03:19:59;;;;;;;8.27;5.65;;;;;;;-142.75;68.33;78791.34;5003913;28;20048;-75
2021/05/29 03:22:25;;;;;;;14.60;5.72;;;;;;;-142.75;68.31;78795.28;5018558;28;20095;-76
2021/05/29 03:24:50;;;;;;;8.63;5.40;;;;;;;-142.75;68.33;78799.22;5021554;28;20075;-75
2021/05/29 03:27:18;;;;;;;9.30;5.45;;;;;;;-142.75;68.49;78803.16;5018429;28;20156;-76
2021/05/29 03:29:44;;;;;;;9.70;5.83;;;;;;;-142.75;68.49;78803.16;5019765;28;20087;-75
2021/05/29 03:32:09;;;;;;;7.50;5.20;;;;;;;-142.75;68.57;78807.09;4999334;28;20022;-74
2021/05/29 03:34:35;;;;;;;8.68;6.07;;;;;;;-142.75;68.69;78807.09;5014192;28;20083;-75
2021/05/29 03:37:00;;;;;;;11.32;6.05;;;;;;;-142.75;68.68;78801.19;5011822;28;20017;-75
2021/05/29 03:39:25;;;;;;;10.18;5.95;;;;;;;-142.75;68.58;78793.31;5010546;28;20494;-75
2021/05/29 03:41:51;;;;;;;14.27;6.88;;;;;;;-142.75;68.61;78787.41;4997677;28;20503;-75
2021/05/29 03:44:16;;;;;;;10.13;6.25;;;;;;;-142.75;68.58;78785.44;5000736;28;20021;-75
2021/05/29 03:46:41;;;;;;;9.30;6.97;;;;;;;-142.75;68.68;78783.47;5002212;28;20246;-75
2021/05/29 03:49:06;;;;;;;9.53;6.03;;;;;;;-142.75;68.89;78773.63;4997869;28;20279;-77
2021/05/29 03:51:32;;;;;;;8.45;6.18;;;;;;;-142.75;68.77;78771.66;5005528;28;20022;-74
2021/05/29 03:53:57;;;;;;;10.95;5.80;;;;;;;-142.75;68.82;78771.66;5022900;28;20038;-75
2021/05/29 03:56:22;;;;;;;10.00;5.57;;;;;;;-142.75;68.81;78773.63;4997241;28;20124;-74
2021/05/29 03:58:48;;;;;;;9.35;5.03;;;;;;;-142.75;68.56;78777.56;5021638;28;20279;-75
2021/05/29 04:01:13;;;;;;;9.43;5.43;;;;;;;-142.75;68.56;78775.59;5018903;28;20033;-75
2021/05/29 04:03:38;;;;;;;7.10;5.20;;;;;;;-142.75;68.45;78777.56;5002505;28;20273;-76
2021/05/29 04:06:04;;;;;;;8.52;5.15;;;;;;;-142.75;68.56;78777.56;5001636;28;20033;-76
2021/05/29 04:08:29;;;;;;;8.00;5.10;;;;;;;-142.75;68.37;78775.59;5022775;28;20045;-76
2021/05/29 04:10:54;;;;;;;9.87;5.67;;;;;;;-142.75;68.61;78771.66;5022923;28;20080;-75
2021/05/29 04:13:20;;;;;;;9.37;5.43;;;;;;;-142.75;68.56;78763.78;5053037;23;20322;-73
2021/05/29 04:15:45;;;;;;;10.60;5.47;;;;;;;-142.75;68.64;78755.91;5048744;28;20272;-75
2021/05/29 04:18:10;;;;;;;9.97;5.37;;;;;;;-142.75;68.84;78751.97;5036528;28;20279;-74
2021/05/29 04:20:36;;;;;;;9.10;5.03;;;;;;;-142.75;68.90;78748.03;5036842;28;20294;-75
2021/05/29 04:23:01;;;;;;;8.57;5.35;;;;;;;-142.75;68.92;78742.09;5054721;28;20021;-75
2021/05/29 04:25:29;;;;;;;11.82;6.22;;;;;;;-142.75;69.01;78728.31;5054401;28;20032;-74
2021/05/29 04:27:54;;;;;;;7.87;5.50;;;;;;;-142.75;68.88;78726.34;5054650;28;20482;-74
2021/05/29 04:30:23;;;;;;;9.05;5.18;;;;;;;-142.75;68.95;78724.38;5054488;28;20025;-75
2021/05/29 04:32:50;;;;;;;7.37;5.50;;;;;;;-142.75;68.83;78722.41;5054297;28;20719;-74
2021/05/29 04:35:16;;;;;;;10.57;5.07;;;;;;;-142.75;68.63;78716.50;5054377;28;20450;-73
2021/05/29 04:37:42;;;;;;;9.03;4.93;;;;;;;-142.75;68.92;78712.56;5054173;28;20436;-74
2021/05/29 04:40:10;;;;;;;6.45;4.63;;;;;;;-142.75;68.91;78704.69;5036454;28;20082;-74
2021/05/29 04:42:36;;;;;;;5.67;4.27;;;;;;;-142.75;68.91;78696.81;5036016;28;20478;-74
2021/05/29 04:45:06;;;;;;;9.05;4.85;;;;;;;-142.75;69.08;78679.09;5054197;28;20502;-74
2021/05/29 04:47:31;;;;;;;7.37;5.33;;;;;;;-142.75;68.95;78661.34;5053946;28;20033;-74
2021/05/29 04:49:57;;;;;;;6.40;4.85;;;;;;;-142.75;68.84;78645.59;5036293;28;20025;-74
2021/05/29 04:52:22;;;;;;;10.25;5.32;;;;;;;-142.75;68.49;78633.78;5053924;28;20556;-75
2021/05/29 04:54:47;;;;;;;7.43;4.90;;;;;;;-142.75;68.35;78616.06;5054080;28;20036;-74
2021/05/29 04:57:13;;;;;;;9.35;4.82;;;;;;;-142.75;68.36;78600.31;5053742;28;20060;-74
2021/05/29 04:59:38;;;;;;;7.90;4.70;;;;;;;-142.75;68.30;78578.63;5036000;28;20497;-74
2021/05/29 05:02:04;;;;;;;7.38;4.97;;;;;;;-142.75;68.42;78562.88;5053676;28;20029;-74
2021/05/29 05:04:29;;;;;;;7.53;4.85;;;;;;;-142.75;68.33;78545.16;5053860;28;20043;-74
2021/05/29 05:06:54;;;;;;;7.37;5.37;;;;;;;-142.75;68.30;78525.47;5053425;28;20033;-74
2021/05/29 05:09:19;;;;;;;9.77;5.20;;;;;;;-142.75;68.40;78509.72;5035943;28;20275;-74
2021/05/29 05:11:45;;;;;;;7.55;5.03;;;;;;;-142.75;67.97;78488.03;5053740;28;20406;-74
2021/05/29 05:14:10;;;;;;;7.65;5.07;;;;;;;-142.75;66.18;78452.59;5053644;28;20154;-75
2021/05/29 05:16:35;;;;;;;9.73;5.20;;;;;;;-142.75;65.42;78413.22;5053336;28;20497;-75
2021/05/29 05:19:01;;;;;;;9.40;5.40;;;;;;;-142.75;64.19;78381.69;5053687;28;20493;-74
2021/05/29 05:21:26;;;;;;;9.98;5.68;;;;;;;-142.75;64.02;78354.13;5053541;28;20025;-74
2021/05/29 05:23:54;;;;;;;6.80;4.78;;;;;;;-142.75;63.53;78330.50;5035983;28;20029;-75
2021/05/29 05:26:19;;;;;;;6.82;4.57;;;;;;;-142.75;63.27;78304.91;5054869;28;20032;-75
2021/05/29 05:28:45;;;;;;;7.10;4.55;;;;;;;-142.75;62.08;78267.47;5035505;28;20402;-74
2021/05/29 05:31:11;;;;;;;8.45;4.97;;;;;;;-142.75;61.43;78235.97;5053514;28;20021;-75
2021/05/29 05:33:45;;;;;;;7.35;4.93;;;;;;;-142.75;60.82;78241.88;5060710;28;20017;-75
2021/05/29 05:36:12;;;;;;;7.10;4.32;;;;;;;-142.75;60.84;78188.72;5073165;28;20020;-73
2021/05/29 05:38:39;;;;;;;8.60;4.43;;;;;;;-142.75;58.15;78167.03;5054843;28;20032;-74
2021/05/29 05:41:05;;;;;;;8.00;4.78;;;;;;;-142.75;58.91;78169.00;5073272;28;20089;-74
2021/05/29 05:43:30;;;;;;;;;;;;;;;-142.75;57.92;78137.50;5055634;28;20032;-75
2021/05/29 05:45:56;;;;;;;9.10;4.53;;;;;;;-142.75;57.67;78100.09;5072876;28;19912;-75
2021/05/29 05:48:21;;;;;;;7.97;4.07;;;;;;;-142.75;57.45;78027.22;5062132;28;20121;-75
2021/05/29 05:50:54;;;;;;;6.95;4.70;;;;;;;-142.75;55.20;77946.50;5059997;28;20513;-75
2021/05/29 05:53:23;;;;;;;6.68;4.20;;;;;;;-142.75;53.31;77873.63;5052987;28;20028;-74
2021/05/29 05:56:01;;;;;;;5.75;3.85;;;;;;;-142.75;52.50;77840.16;5052779;28;20029;-74
2021/05/29 05:58:29;;;;;;;7.10;4.15;;;;;;;-142.75;52.03;77814.56;5052984;28;20510;-74
2021/05/29 06:00:54;;;;;;;9.40;4.35;;;;;;;-142.75;51.33;77816.53;5052739;28;20031;-74
2021/05/29 06:03:20;;;;;;;9.02;4.15;;;;;;;-142.75;50.96;77787.00;5068222;28;20103;-74
2021/05/29 06:05:46;;;;;;;7.22;4.30;;;;;;;-142.75;51.87;77759.44;5072538;28;20028;-74
2021/05/29 06:08:13;;;;;;;5.30;3.75;;;;;;;-142.75;50.74;77712.16;5058971;28;20431;-75
2021/05/29 06:10:38;;;;;;;4.97;3.58;;;;;;;-142.75;48.62;77771.25;5055038;28;20021;-75
2021/05/29 06:13:03;;;;;;;5.07;3.65;;;;;;;-142.75;50.64;77747.63;5053023;28;20040;-74
2021/05/29 06:18:27;;;;;;;5.93;3.97;;;;;;;-142.75;49.00;77582.22;5051509;28;20040;-74
2021/05/29 06:20:52;;;;;;;5.82;3.38;;;;;;;-142.75;47.46;77521.19;5035163;28;20025;-74
2021/05/29 06:23:18;;;;;;;5.78;3.67;;;;;;;-142.75;47.07;77471.97;5036232;28;20375;-74
2021/05/29 06:25:43;;;;;;;;;;;;;;;-142.75;46.48;77460.13;5054639;28;20036;-74
2021/05/29 06:28:09;;;;;;;7.00;3.70;;;;;;;-142.75;46.02;77428.63;5035593;28;19977;-74
2021/05/29 06:30:35;;;;;;;6.45;3.65;;;;;;;-142.75;44.32;77444.38;5050929;28;20029;-75
2021/05/29 06:33:04;;;;;;;6.00;3.75;;;;;;;-142.75;45.57;77395.16;5051707;28;20037;-74
2021/05/29 06:35:30;;;;;;;6.45;3.08;;;;;;;-142.75;44.71;77355.78;5039141;28;20039;-75
2021/05/29 06:37:55;;;;;;;7.28;3.40;;;;;;;-142.75;45.04;77379.41;5054092;28;20033;-74
2021/05/29 06:40:21;;;;;;;;;;;;;;;-142.75;44.48;77389.25;5050408;28;20047;-75
2021/05/29 06:42:46;;;;;;;6.53;2.40;;;;;;;-142.75;42.79;77355.78;5054838;28;19966;-75
2021/05/29 06:45:11;;;;;;;;;;;;;;;-142.75;43.68;77381.38;5034473;28;20119;-75
2021/05/29 06:47:37;;;;;;;8.07;3.50;;;;;;;-142.75;43.72;77251.44;5051956;28;19975;-75
2021/05/29 06:50:05;;;;;;;3.25;2.35;;;;;;;-142.75;42.96;77145.13;5051648;28;20057;-75
2021/05/29 06:52:32;;;;;;;4.45;2.67;;;;;;;-142.75;40.67;77050.63;5067244;28;20024;-75
2021/05/29 06:58:36;;;;;;;5.35;2.80;;;;;;;-142.75;40.12;76967.94;5053738;28;20024;-75
2021/05/29 07:00:33;;;;;;;3.63;2.85;;;;;;;-142.75;38.65;76830.13;5050901;28;20102;-75
2021/05/29 07:02:58;;;;;;;10.40;3.40;;;;;;;-142.75;38.37;76845.88;5033712;28;20021;-76
2021/05/29 07:05:23;;;;;;;5.45;2.95;;;;;;;-142.75;37.98;76796.69;5051277;28;20465;-75
2021/05/29 07:07:49;;;;;;;4.95;2.85;;;;;;;-142.75;37.33;76784.88;5051539;28;20017;-74
2021/05/29 07:10:14;;;;;;;5.72;2.53;;;;;;;-142.75;37.61;76747.47;5033622;28;20083;-75
2021/05/29 07:12:40;;;;;;;3.55;2.58;;;;;;;-142.75;36.67;76733.69;5050796;28;20047;-74
2021/05/29 07:15:07;;;;;;;3.45;2.53;;;;;;;-142.75;35.64;76761.25;5033407;28;20055;-74
2021/05/29 07:17:33;;;;;;;4.13;2.50;;;;;;;-142.75;36.78;76737.63;5050966;28;20056;-75
2021/05/29 07:19:58;;;;;;;4.75;2.72;;;;;;;-142.75;37.41;76729.75;5034039;28;20032;-76
2021/05/29 07:22:24;;;;;;;4.97;2.63;;;;;;;-142.75;36.08;76731.72;5064000;28;20027;-75
2021/05/29 07:24:49;;;;;;;3.85;2.40;;;;;;;-142.75;36.77;76706.13;5071185;28;20099;-75
2021/05/29 07:27:15;;;;;;;5.43;2.63;;;;;;;-142.75;35.81;76609.66;5052765;28;20020;-74
2021/05/29 07:29:40;;;;;;;4.57;2.58;;;;;;;-142.75;35.17;76611.63;5042959;28;20077;-74
2021/05/29 07:32:06;;;;;;;4.03;2.42;;;;;;;-142.75;35.01;76566.34;5051021;28;20025;-74
2021/05/29 07:34:31;;;;;;;4.05;2.50;;;;;;;-142.75;35.50;76538.78;5060844;28;20036;-75
2021/05/29 07:36:56;;;;;;;5.18;2.25;;;;;;;-142.75;34.57;76546.66;5045400;28;20032;-74
2021/05/29 07:39:22;;;;;;;8.63;2.75;;;;;;;-142.75;35.23;76556.50;5051020;28;20028;-74
2021/05/29 07:41:47;;;;;;;4.00;2.65;;;;;;;-142.75;34.65;76485.66;5050772;28;20025;-74
2021/05/29 07:44:12;;;;;;;3.45;2.47;;;;;;;-142.75;34.67;76527.00;5050680;28;20041;-74
2021/05/29 07:46:38;;;;;;;4.68;2.50;;;;;;;-142.75;34.65;76489.59;5050628;28;20542;-74
2021/05/29 07:49:07;;;;;;;3.58;2.25;;;;;;;-142.75;33.48;76428.56;5053596;28;20032;-74
2021/05/29 07:51:37;;;;;;;3.58;2.17;;;;;;;-142.75;32.93;76406.91;5063224;28;20017;-74
2021/05/29 07:54:06;;;;;;;3.90;2.15;;;;;;;-142.75;31.87;76361.63;5049756;28;20127;-74
2021/05/29 07:56:32;;;;;;;4.40;2.00;;;;;;;-142.75;32.40;76318.34;5050373;28;20167;-75
2021/05/29 07:58:59;;;;;;;4.30;2.00;;;;;;;-142.75;33.21;76357.69;5062008;28;20036;-74
2021/05/29 08:01:24;;;;;;;6.30;2.10;;;;;;;-142.75;32.53;76359.66;5068106;28;20381;-75
2021/05/29 08:03:49;;;;;;;4.70;2.65;;;;;;;-142.75;32.30;76312.44;5035919;28;20116;-75
2021/05/29 08:06:20;;;;;;;3.75;2.10;;;;;;;-142.75;32.05;76284.88;5049517;28;20021;-75
2021/05/29 08:08:46;;;;;;;4.65;3.22;;;;;;;-142.75;32.85;76355.72;5070638;28;20543;-75
2021/05/29 08:11:21;;;;;;;5.60;3.30;;;;;;;-142.75;32.46;76263.22;5059594;28;20016;-74
2021/05/29 08:13:49;;;;;;;5.75;3.90;;;;;;;-142.75;32.28;76300.63;5063495;28;20028;-75
2021/05/29 08:16:15;;;;;;;5.07;3.35;;;;;;;-142.75;32.90;76284.88;5070345;28;20058;-75
2021/05/29 08:18:41;;;;;;;6.00;4.18;;;;;;;-142.75;32.21;76340.00;5070510;28;20043;-76
2021/05/29 08:21:06;;;;;;;5.13;3.42;;;;;;;-142.75;30.72;76444.31;5058137;28;20111;-75
2021/05/29 08:23:32;;;;;;;6.32;3.47;;;;;;;-142.75;32.11;76406.91;5050428;28;20478;-74
2021/05/29 08:25:57;;;;;;;5.20;3.05;;;;;;;-142.75;32.04;76318.34;5032251;28;20068;-75
2021/05/29 08:28:23;;;;;;;4.85;3.05;;;;;;;-142.75;31.58;76267.16;5063198;28;20047;-74
2021/05/29 08:30:48;;;;;;;6.10;4.07;;;;;;;-142.75;31.37;76227.78;5070354;28;20017;-75
2021/05/29 08:33:13;;;;;;;7.60;4.47;;;;;;;-142.75;31.33;76278.97;5057578;28;20062;-75
2021/05/29 08:35:38;;;;;;;6.75;4.63;;;;;;;-142.75;31.69;76176.63;5044045;28;20058;-75
2021/05/29 08:38:05;;;;;;;6.70;4.50;;;;;;;-142.75;31.79;76184.50;5045732;28;20024;-74
2021/05/29 08:40:30;;;;;;;7.07;4.07;;;;;;;-142.75;31.27;76300.63;5070157;28;20090;-75
2021/05/29 08:42:55;;;;;;;7.75;4.70;;;;;;;-142.75;32.72;76310.47;5070073;28;20483;-75
2021/05/29 08:45:21;;;;;;;7.20;4.15;;;;;;;-142.75;32.10;76249.44;5051940;28;20032;-74
2021/05/29 08:47:47;;;;;;;6.10;4.38;;;;;;;-142.75;31.43;76326.22;5070120;28;20394;-74
2021/05/29 08:50:14;;;;;;;5.57;4.00;;;;;;;-142.75;31.80;76306.53;5057289;28;20036;-75
2021/05/29 08:52:40;;;;;;;7.38;4.55;;;;;;;-142.75;32.72;76536.84;5032098;28;20029;-75
2021/05/29 08:55:14;;;;;;;7.50;4.70;;;;;;;-142.75;33.04;76550.59;5050095;28;20565;-74
2021/05/29 08:57:40;;;;;;;5.93;3.60;;;;;;;-142.75;33.21;76680.53;5041272;28;20127;-75
2021/05/29 09:00:12;;;;;;;6.07;3.95;;;;;;;-142.75;35.56;76599.81;5052088;28;20406;-73
2021/05/29 09:03:01;;;;;;;7.47;4.38;;;;;;;-142.75;32.74;76397.06;5071399;28;20029;-75
2021/05/29 09:05:44;;;;;;;5.88;3.88;;;;;;;-142.75;32.30;76275.03;5073201;28;20095;-75
2021/05/29 09:08:13;;;;;;;5.75;4.18;;;;;;;-142.75;32.08;76334.09;5035731;28;20032;-74
2021/05/29 09:10:49;;;;;;;7.50;3.92;;;;;;;-142.75;32.47;76448.25;5035729;28;20040;-75
2021/05/29 09:13:16;;;;;;;4.80;3.75;;;;;;;-142.75;32.24;76369.50;5059819;28;20153;-75
2021/05/29 09:15:50;;;;;;;6.38;4.43;;;;;;;-142.75;31.82;76373.44;5073213;28;20055;-75
2021/05/29 09:18:33;;;;;;;5.15;3.75;;;;;;;-142.75;31.98;76267.16;5063329;28;20021;-74
2021/05/29 09:21:21;;;;;;;5.90;3.72;;;;;;;-142.75;32.21;76196.31;5053539;28;20505;-75
2021/05/29 09:23:57;;;;;;;5.57;3.10;;;;;;;-142.75;31.85;76196.31;5063350;28;20035;-75
2021/05/29 09:26:40;;;;;;;4.17;2.60;;;;;;;-142.75;31.28;76109.69;5065587;28;20016;-75
2021/05/29 09:29:20;;;;;;;6.22;2.65;;;;;;;-142.75;30.82;76166.78;5046063;28;20725;-76
2021/05/29 09:31:55;;;;;;;3.08;2.03;;;;;;;-142.75;29.97;76129.38;5061294;28;20436;-75
2021/05/29 09:34:27;;;;;;;3.50;2.38;;;;;;;-142.75;29.81;76105.75;5073157;28;20025;-75
2021/05/29 09:37:11;;;;;;;3.00;1.70;;;;;;;-142.75;29.53;76060.50;5072732;28;20120;-75
2021/05/29 09:39:39;;;;;;;2.70;1.80;;;;;;;-142.75;27.94;76212.03;5073334;28;20498;-75
2021/05/29 09:42:09;;;;;;;4.32;1.90;;;;;;;-142.75;29.91;76192.38;5072841;28;20112;-75
2021/05/29 09:44:35;;;;;;;4.95;2.97;;;;;;;-142.75;29.33;76198.28;5072893;28;20060;-75
2021/05/29 09:47:05;;;;;;;4.25;2.80;;;;;;;-142.75;30.97;76247.47;5072637;28;20044;-75
2021/05/29 09:49:54;;;;;;;5.32;2.88;;;;;;;-142.75;29.53;76162.84;5051736;28;20036;-75
2021/05/29 09:52:25;;;;;;;4.05;2.33;;;;;;;-142.75;30.14;76357.69;5052878;28;20403;-75
2021/05/29 09:54:55;;;;;;;5.63;2.97;;;;;;;-142.75;28.92;76330.16;5034863;28;20029;-75
2021/05/29 09:57:21;;;;;;;5.10;2.58;;;;;;;-142.75;30.59;76582.09;5052482;28;20039;-76
2021/05/29 10:00:06;;;;;;;5.43;2.83;;;;;;;-142.75;34.10;76802.56;5034864;28;20021;-74
2021/05/29 10:02:31;;;;;;;5.93;2.78;;;;;;;-142.75;34.81;76584.06;5034550;28;20032;-74
2021/05/29 10:04:57;;;;;;;5.40;3.30;;;;;;;-142.75;32.75;76438.41;5052523;28;20099;-75
2021/05/29 10:07:24;;;;;;;5.25;3.78;;;;;;;-142.75;30.15;76381.31;5052434;28;20023;-75
2021/05/29 10:09:50;;;;;;;7.00;3.65;;;;;;;-142.75;29.64;76369.50;5052521;28;20075;-75
2021/05/29 10:14:43;;;;;;;8.45;3.78;;;;;;;-142.75;32.47;76302.59;5006340;28;20037;-74
2021/05/29 10:17:11;;;;;;;8.75;4.30;;;;;;;-142.75;32.24;76208.09;5010663;28;20686;-75
2021/05/29 10:19:40;;;;;;;7.00;4.20;;;;;;;-142.75;30.98;76221.88;4995073;28;20026;-75
2021/05/29 10:22:14;;;;;;;8.88;4.90;;;;;;;-142.75;31.80;76292.75;4994765;28;20030;-73
2021/05/29 10:24:40;;;;;;;9.25;4.20;;;;;;;-142.75;33.45;76365.56;5032083;28;20025;-76
2021/05/29 10:27:12;;;;;;;6.63;4.25;;;;;;;-142.75;31.50;76326.22;5003201;28;20395;-75
2021/05/29 10:29:38;;;;;;;6.82;3.92;;;;;;;-142.75;30.56;76241.56;5032220;28;20040;-75
2021/05/29 10:32:18;;;;;;;6.95;3.75;;;;;;;-142.75;30.46;76129.38;5014502;28;20032;-75
2021/05/29 10:35:08;;;;;;;5.20;3.75;;;;;;;-142.75;30.74;76086.06;5032259;28;20036;-75
2021/05/29 10:37:41;;;;;;;6.18;3.83;;;;;;;-142.75;29.77;76050.66;5030511;28;20510;-77
2021/05/29 10:40:27;;;;;;;5.30;3.47;;;;;;;-142.75;29.59;76145.13;5021985;28;20029;-76
2021/05/29 10:43:08;;;;;;;6.23;3.60;;;;;;;-142.75;30.31;76153.00;5027303;28;20040;-76
2021/05/29 10:46:00;;;;;;;5.30;3.83;;;;;;;-142.75;31.38;76182.53;5011849;28;20272;-74
2021/05/29 10:48:27;;;;;;;8.95;5.00;;;;;;;-142.75;31.55;76434.47;5028055;28;20028;-74
2021/05/29 10:51:09;;;;;;;6.10;4.40;;;;;;;-142.75;32.79;76271.09;5014007;28;20482;-75
2021/05/29 10:53:45;;;;;;;7.57;4.82;;;;;;;-142.75;31.63;76168.75;5031679;28;20025;-76
2021/05/29 10:56:32;;;;;;;6.93;4.53;;;;;;;-142.75;30.69;76101.81;5013698;28;20026;-76
2021/05/29 10:59:11;;;;;;;6.18;4.38;;;;;;;-142.75;30.29;76076.22;5012260;28;20033;-75
2021/05/29 11:04:29;;;;;;;5.90;4.20;;;;;;;-142.75;29.96;76214.00;5017937;28;20127;-75
2021/05/29 11:06:55;;;;;;;7.45;4.25;;;;;;;-142.75;32.20;76253.38;5009942;28;20343;-77
2021/05/29 11:09:29;;;;;;;7.82;5.25;;;;;;;-142.75;32.32;76273.06;5013870;28;20057;-75
2021/05/29 11:11:59;;;;;;;7.38;5.53;;;;;;;-142.75;31.35;76162.84;5013645;28;20021;-75
2021/05/29 11:14:48;;;;;;;7.50;5.10;;;;;;;-142.75;31.18;76129.38;5048628;28;20504;-76
2021/05/29 11:17:18;;;;;;;7.85;4.88;;;;;;;-142.75;30.63;76090.00;5028473;28;20060;-78
2021/05/29 11:20:00;;;;;;;8.98;5.45;;;;;;;-142.75;31.92;76267.16;5051548;28;20021;-75
2021/05/29 11:22:25;;;;;;;8.60;5.68;;;;;;;-142.75;33.01;76340.00;5033268;28;20036;-75
2021/05/29 11:24:54;;;;;;;7.30;5.63;;;;;;;-142.75;31.82;76371.47;5050868;28;20385;-76
2021/05/29 11:27:22;;;;;;;7.55;5.68;;;;;;;-142.75;32.16;76310.47;5050707;28;20056;-73
2021/05/29 11:29:55;;;;;;;7.65;5.30;;;;;;;-142.75;32.84;76255.34;5050988;28;20505;-75
2021/05/29 11:35:27;;;;;;;8.52;5.70;;;;;;;-142.75;31.84;76263.22;5050731;28;20051;-74